createdAt,value
2018-03-27T00:00:11.041Z,60.60
2018-03-27T00:01:11.176Z,60.60
2018-03-27T00:02:11.317Z,61.05
2018-03-27T00:03:11.452Z,62.08
2018-03-27T00:04:11.580Z,62.56
2018-03-27T00:05:11.716Z,62.18
2018-03-27T00:06:11.851Z,62.56
2018-03-27T00:07:11.986Z,62.85
2018-03-27T00:08:12.111Z,62.75
2018-03-27T00:09:13.056Z,63.13
2018-03-27T00:10:12.366Z,62.66
2018-03-27T00:11:12.558Z,61.90
2018-03-27T00:12:12.710Z,62.08
2018-03-27T00:13:12.844Z,62.21
2018-03-27T00:14:12.967Z,62.02
2018-03-27T00:15:13.104Z,61.93
2018-03-27T00:16:13.247Z,61.74
2018-03-27T00:17:13.378Z,61.24
2018-03-27T00:18:13.515Z,61.99
2018-03-27T00:19:13.649Z,61.90
2018-03-27T00:20:13.778Z,62.12
2018-03-27T00:21:13.905Z,62.31
2018-03-27T00:22:14.040Z,62.12
2018-03-27T00:23:14.180Z,61.61
2018-03-27T00:24:14.312Z,62.85
2018-03-27T00:25:14.451Z,63.23
2018-03-27T00:26:14.642Z,63.89
2018-03-27T00:27:14.647Z,64.27
2018-03-27T00:28:14.784Z,64.93
2018-03-27T00:29:14.922Z,64.93
2018-03-27T00:30:15.055Z,64.27
2018-03-27T00:31:15.190Z,63.89
2018-03-27T00:32:15.333Z,63.79
2018-03-27T00:33:15.462Z,62.78
2018-03-27T00:34:15.599Z,62.78
2018-03-27T00:35:15.739Z,62.69
2018-03-27T00:36:15.881Z,62.88
2018-03-27T00:37:16.005Z,62.59
2018-03-27T00:38:16.152Z,62.21
2018-03-27T00:39:16.287Z,62.02
2018-03-27T00:40:16.412Z,61.74
2018-03-27T00:41:16.546Z,61.83
2018-03-27T00:42:16.707Z,61.83
2018-03-27T00:43:16.830Z,61.36
2018-03-27T00:44:16.967Z,61.08
2018-03-27T00:45:17.095Z,61.30
2018-03-27T00:46:17.253Z,60.73
2018-03-27T00:47:17.364Z,60.53
2018-03-27T00:48:17.512Z,60.16
2018-03-27T00:49:17.639Z,59.88
2018-03-27T00:50:17.778Z,59.88
2018-03-27T00:51:17.902Z,60.06
2018-03-27T00:52:18.090Z,60.06
2018-03-27T00:53:18.115Z,59.97
2018-03-27T00:54:18.254Z,59.97
2018-03-27T00:55:18.385Z,60.82
2018-03-27T00:56:18.557Z,60.63
2018-03-27T00:57:18.676Z,60.92
2018-03-27T00:58:18.801Z,59.88
2018-03-27T00:59:18.939Z,59.97
2018-03-27T01:00:19.104Z,59.97
2018-03-27T01:01:19.231Z,59.59
2018-03-27T01:02:19.365Z,59.78
2018-03-27T01:03:19.551Z,59.88
2018-03-27T01:04:19.676Z,59.21
2018-03-27T01:05:19.808Z,59.30
2018-03-27T01:06:19.937Z,59.68
2018-03-27T01:07:20.088Z,59.78
2018-03-27T01:08:20.215Z,59.78
2018-03-27T01:09:20.349Z,59.78
2018-03-27T01:10:20.485Z,60.13
2018-03-27T01:11:20.631Z,61.65
2018-03-27T01:12:20.762Z,62.12
2018-03-27T01:13:20.897Z,62.12
2018-03-27T01:14:21.025Z,62.31
2018-03-27T01:15:21.161Z,61.83
2018-03-27T01:16:21.297Z,62.12
2018-03-27T01:17:21.422Z,62.12
2018-03-27T01:18:21.560Z,62.12
2018-03-27T01:19:21.692Z,61.74
2018-03-27T01:20:21.820Z,62.02
2018-03-27T01:21:21.949Z,61.93
2018-03-27T01:22:22.082Z,62.21
2018-03-27T01:23:22.216Z,62.50
2018-03-27T01:24:22.348Z,61.93
2018-03-27T01:25:22.481Z,61.46
2018-03-27T01:26:22.688Z,61.93
2018-03-27T01:27:22.770Z,61.83
2018-03-27T01:28:22.901Z,61.65
2018-03-27T01:29:23.032Z,61.65
2018-03-27T01:30:23.174Z,61.46
2018-03-27T01:31:23.297Z,61.36
2018-03-27T01:32:23.429Z,61.27
2018-03-27T01:33:23.564Z,60.89
2018-03-27T01:34:23.706Z,60.98
2018-03-27T01:35:23.842Z,61.17
2018-03-27T01:36:23.974Z,60.60
2018-03-27T01:37:24.105Z,60.70
2018-03-27T01:38:24.279Z,60.60
2018-03-27T01:39:24.407Z,60.60
2018-03-27T01:40:24.537Z,60.70
2018-03-27T01:41:24.668Z,60.13
2018-03-27T01:42:24.810Z,60.03
2018-03-27T01:43:24.937Z,59.46
2018-03-27T01:44:25.077Z,59.84
2018-03-27T01:45:25.222Z,59.88
2018-03-27T01:46:25.356Z,59.59
2018-03-27T01:47:25.486Z,59.59
2018-03-27T01:48:25.622Z,59.40
2018-03-27T01:49:25.789Z,59.78
2018-03-27T01:50:25.953Z,59.68
2018-03-27T01:51:26.110Z,59.49
2018-03-27T01:52:26.239Z,59.88
2018-03-27T01:53:26.360Z,59.49
2018-03-27T01:54:26.514Z,59.30
2018-03-27T01:55:26.640Z,59.49
2018-03-27T01:56:26.778Z,59.21
2018-03-27T01:57:26.906Z,59.40
2018-03-27T01:58:27.044Z,59.30
2018-03-27T01:59:27.172Z,59.40
2018-03-27T02:00:27.307Z,60.06
2018-03-27T02:01:27.442Z,59.59
2018-03-27T02:02:27.577Z,59.88
2018-03-27T02:03:27.712Z,60.16
2018-03-27T02:04:27.846Z,60.35
2018-03-27T02:05:27.978Z,60.03
2018-03-27T02:06:28.112Z,60.70
2018-03-27T02:07:28.242Z,60.70
2018-03-27T02:08:28.378Z,61.01
2018-03-27T02:09:28.507Z,60.63
2018-03-27T02:10:28.656Z,60.60
2018-03-27T02:11:28.781Z,60.92
2018-03-27T02:12:28.915Z,60.53
2018-03-27T02:13:29.050Z,60.63
2018-03-27T02:14:29.185Z,60.79
2018-03-27T02:15:29.319Z,60.73
2018-03-27T02:16:29.453Z,60.73
2018-03-27T02:17:29.591Z,60.73
2018-03-27T02:18:29.717Z,60.73
2018-03-27T02:19:29.902Z,60.82
2018-03-27T02:20:29.920Z,61.20
2018-03-27T02:21:30.056Z,60.92
2018-03-27T02:22:30.185Z,61.27
2018-03-27T02:23:30.321Z,61.93
2018-03-27T02:24:30.454Z,62.21
2018-03-27T02:25:30.586Z,62.12
2018-03-27T02:26:30.720Z,62.78
2018-03-27T02:27:30.854Z,62.69
2018-03-27T02:28:30.985Z,62.40
2018-03-27T02:29:31.120Z,62.59
2018-03-27T02:30:31.259Z,62.69
2018-03-27T02:31:31.389Z,62.59
2018-03-27T02:32:31.522Z,62.59
2018-03-27T02:33:31.669Z,62.97
2018-03-27T02:34:31.797Z,61.83
2018-03-27T02:35:31.931Z,61.83
2018-03-27T02:36:33.003Z,62.02
2018-03-27T02:37:32.165Z,62.12
2018-03-27T02:38:32.300Z,62.31
2018-03-27T02:39:32.435Z,62.31
2018-03-27T02:40:32.581Z,61.74
2018-03-27T02:41:32.716Z,61.65
2018-03-27T02:42:32.861Z,61.65
2018-03-27T02:43:33.022Z,61.36
2018-03-27T02:44:33.153Z,61.96
2018-03-27T02:45:33.284Z,61.93
2018-03-27T02:46:33.419Z,61.46
2018-03-27T02:47:33.572Z,61.87
2018-03-27T02:48:33.694Z,61.49
2018-03-27T02:49:33.835Z,62.50
2018-03-27T02:50:33.969Z,62.05
2018-03-27T02:51:34.117Z,61.96
2018-03-27T02:52:34.253Z,62.24
2018-03-27T02:53:34.383Z,61.96
2018-03-27T02:54:34.586Z,62.72
2018-03-27T02:55:34.670Z,62.72
2018-03-27T02:56:34.800Z,63.10
2018-03-27T02:57:34.929Z,62.62
2018-03-27T02:58:35.075Z,63.39
2018-03-27T02:59:35.231Z,63.29
2018-03-27T03:00:35.360Z,62.91
2018-03-27T03:01:35.500Z,64.05
2018-03-27T03:02:35.641Z,63.95
2018-03-27T03:03:35.775Z,64.11
2018-03-27T03:04:35.929Z,64.01
2018-03-27T03:05:36.086Z,64.97
2018-03-27T03:06:36.217Z,64.78
2018-03-27T03:07:36.347Z,65.34
2018-03-27T03:08:36.510Z,64.97
2018-03-27T03:09:36.646Z,64.40
2018-03-27T03:10:36.800Z,64.59
2018-03-27T03:11:36.925Z,64.11
2018-03-27T03:12:37.061Z,64.59
2018-03-27T03:13:37.196Z,64.20
2018-03-27T03:14:37.334Z,64.30
2018-03-27T03:15:37.463Z,64.40
2018-03-27T03:16:37.594Z,64.59
2018-03-27T03:17:37.724Z,64.59
2018-03-27T03:18:37.879Z,64.43
2018-03-27T03:19:38.122Z,64.40
2018-03-27T03:20:38.127Z,64.52
2018-03-27T03:21:38.261Z,64.33
2018-03-27T03:22:38.407Z,64.33
2018-03-27T03:23:38.539Z,64.43
2018-03-27T03:24:38.672Z,64.14
2018-03-27T03:25:38.805Z,63.86
2018-03-27T03:26:38.957Z,64.62
2018-03-27T03:27:39.087Z,64.52
2018-03-27T03:28:39.219Z,64.14
2018-03-27T03:29:39.354Z,64.33
2018-03-27T03:30:39.517Z,64.24
2018-03-27T03:31:39.654Z,64.14
2018-03-27T03:32:39.775Z,63.67
2018-03-27T03:33:39.912Z,63.57
2018-03-27T03:34:40.042Z,63.76
2018-03-27T03:35:40.172Z,63.57
2018-03-27T03:36:40.307Z,64.43
2018-03-27T03:37:40.497Z,64.24
2018-03-27T03:38:40.626Z,64.24
2018-03-27T03:39:40.757Z,64.05
2018-03-27T03:40:40.886Z,63.86
2018-03-27T03:41:41.060Z,64.11
2018-03-27T03:42:41.191Z,64.97
2018-03-27T03:43:41.327Z,65.34
2018-03-27T03:44:41.454Z,65.44
2018-03-27T03:45:41.608Z,65.34
2018-03-27T03:46:41.750Z,65.44
2018-03-27T03:47:41.885Z,65.72
2018-03-27T03:48:42.020Z,65.53
2018-03-27T03:49:42.973Z,66.29
2018-03-27T03:50:42.311Z,66.39
2018-03-27T03:51:42.453Z,66.20
2018-03-27T03:52:42.585Z,66.48
2018-03-27T03:53:42.737Z,66.48
2018-03-27T03:54:42.867Z,66.48
2018-03-27T03:55:42.997Z,66.10
2018-03-27T03:56:43.130Z,66.58
2018-03-27T03:57:43.264Z,66.77
2018-03-27T03:58:43.505Z,66.58
2018-03-27T03:59:43.514Z,66.42
2018-03-27T04:00:43.653Z,66.52
2018-03-27T04:01:43.792Z,65.56
2018-03-27T04:02:43.938Z,65.56
2018-03-27T04:03:44.082Z,65.47
2018-03-27T04:04:44.215Z,65.34
2018-03-27T04:05:44.367Z,65.53
2018-03-27T04:06:44.501Z,65.72
2018-03-27T04:07:44.632Z,66.20
2018-03-27T04:08:44.768Z,66.67
2018-03-27T04:09:44.912Z,66.67
2018-03-27T04:10:45.048Z,66.39
2018-03-27T04:11:45.174Z,66.48
2018-03-27T04:12:45.337Z,66.77
2018-03-27T04:13:45.546Z,67.05
2018-03-27T04:14:45.555Z,67.71
2018-03-27T04:15:45.694Z,67.05
2018-03-27T04:16:45.850Z,67.43
2018-03-27T04:17:46.090Z,67.52
2018-03-27T04:18:46.942Z,66.86
2018-03-27T04:19:46.249Z,67.14
2018-03-27T04:20:46.377Z,67.96
2018-03-27T04:21:46.512Z,67.81
2018-03-27T04:22:46.662Z,67.71
2018-03-27T04:23:46.795Z,67.81
2018-03-27T04:24:46.927Z,67.81
2018-03-27T04:25:47.064Z,67.62
2018-03-27T04:26:47.219Z,67.68
2018-03-27T04:27:47.357Z,68.54
2018-03-27T04:28:47.493Z,69.29
2018-03-27T04:29:47.679Z,69.77
2018-03-27T04:30:47.765Z,69.38
2018-03-27T04:31:47.922Z,69.57
2018-03-27T04:32:48.052Z,69.20
2018-03-27T04:33:48.187Z,69.52
2018-03-27T04:34:48.331Z,68.76
2018-03-27T04:35:48.558Z,68.85
2018-03-27T04:36:48.567Z,68.29
2018-03-27T04:37:48.701Z,68.10
2018-03-27T04:38:48.852Z,67.71
2018-03-27T04:39:48.990Z,67.81
2018-03-27T04:40:49.114Z,68.00
2018-03-27T04:41:49.256Z,67.71
2018-03-27T04:42:49.381Z,67.81
2018-03-27T04:43:49.517Z,67.62
2018-03-27T04:44:49.654Z,67.71
2018-03-27T04:45:49.791Z,67.71
2018-03-27T04:46:49.920Z,67.90
2018-03-27T04:47:50.060Z,67.71
2018-03-27T04:48:50.200Z,67.81
2018-03-27T04:49:50.328Z,67.24
2018-03-27T04:50:50.461Z,67.24
2018-03-27T04:51:50.599Z,67.37
2018-03-27T04:52:50.728Z,67.08
2018-03-27T04:53:50.864Z,67.18
2018-03-27T04:54:50.990Z,67.65
2018-03-27T04:55:51.125Z,66.80
2018-03-27T04:56:51.260Z,66.61
2018-03-27T04:57:51.395Z,66.71
2018-03-27T04:58:51.523Z,66.23
2018-03-27T04:59:51.659Z,66.42
2018-03-27T05:00:51.790Z,66.33
2018-03-27T05:01:51.927Z,66.23
2018-03-27T05:02:52.054Z,66.42
2018-03-27T05:03:52.196Z,66.80
2018-03-27T05:04:52.320Z,66.80
2018-03-27T05:05:52.444Z,66.71
2018-03-27T05:06:52.580Z,66.71
2018-03-27T05:07:52.714Z,66.71
2018-03-27T05:08:52.846Z,66.33
2018-03-27T05:09:52.977Z,65.95
2018-03-27T05:10:53.109Z,65.66
2018-03-27T05:11:53.247Z,65.75
2018-03-27T05:12:53.372Z,66.04
2018-03-27T05:13:53.505Z,65.66
2018-03-27T05:14:53.640Z,66.77
2018-03-27T05:15:53.775Z,67.52
2018-03-27T05:16:53.907Z,67.90
2018-03-27T05:17:54.048Z,67.90
2018-03-27T05:18:54.179Z,67.62
2018-03-27T05:19:54.311Z,67.62
2018-03-27T05:20:54.443Z,68.00
2018-03-27T05:21:54.579Z,67.90
2018-03-27T05:22:54.720Z,67.90
2018-03-27T05:23:54.861Z,67.62
2018-03-27T05:24:54.986Z,67.65
2018-03-27T05:25:55.126Z,67.52
2018-03-27T05:26:55.248Z,67.75
2018-03-27T05:27:55.383Z,68.04
2018-03-27T05:28:55.516Z,67.46
2018-03-27T05:29:55.649Z,67.75
2018-03-27T05:30:55.812Z,67.94
2018-03-27T05:31:55.923Z,67.85
2018-03-27T05:32:56.055Z,67.65
2018-03-27T05:33:56.194Z,67.56
2018-03-27T05:34:56.339Z,67.75
2018-03-27T05:35:56.474Z,67.18
2018-03-27T05:36:56.604Z,67.08
2018-03-27T05:37:56.736Z,67.56
2018-03-27T05:38:56.904Z,66.99
2018-03-27T05:39:57.079Z,66.99
2018-03-27T05:40:57.210Z,66.71
2018-03-27T05:41:57.351Z,66.80
2018-03-27T05:42:57.498Z,67.52
2018-03-27T05:43:57.624Z,67.71
2018-03-27T05:44:57.768Z,68.29
2018-03-27T05:45:57.897Z,69.04
2018-03-27T05:46:58.056Z,69.96
2018-03-27T05:47:58.184Z,70.72
2018-03-27T05:48:58.316Z,70.90
2018-03-27T05:49:58.448Z,71.00
2018-03-27T05:50:58.601Z,70.84
2018-03-27T05:51:58.720Z,71.22
2018-03-27T05:52:58.853Z,70.37
2018-03-27T05:53:58.984Z,70.56
2018-03-27T05:54:59.117Z,70.37
2018-03-27T05:55:59.281Z,70.09
2018-03-27T05:56:59.443Z,70.09
2018-03-27T05:57:59.577Z,70.18
2018-03-27T05:58:59.718Z,70.28
2018-03-27T05:59:59.867Z,69.80
2018-03-27T06:00:59.996Z,69.61
2018-03-27T06:02:00.127Z,69.52
2018-03-27T06:03:00.264Z,69.23
2018-03-27T06:04:00.412Z,69.13
2018-03-27T06:05:00.551Z,69.04
2018-03-27T06:06:00.678Z,68.38
2018-03-27T06:07:00.853Z,68.85
2018-03-27T06:08:00.976Z,68.66
2018-03-27T06:09:01.113Z,67.90
2018-03-27T06:10:01.247Z,67.62
2018-03-27T06:11:01.389Z,67.90
2018-03-27T06:12:01.517Z,67.90
2018-03-27T06:13:01.655Z,68.19
2018-03-27T06:14:01.802Z,68.57
2018-03-27T06:15:02.002Z,68.76
2018-03-27T06:16:02.083Z,69.33
2018-03-27T06:17:02.209Z,70.05
2018-03-27T06:18:03.297Z,70.24
2018-03-27T06:20:35.082Z,71.85
2018-03-27T06:21:35.202Z,71.85
2018-03-27T06:22:35.336Z,71.38
2018-03-27T06:23:35.486Z,71.47
2018-03-27T06:24:35.616Z,70.65
2018-03-27T06:25:35.749Z,70.65
2018-03-27T06:26:35.887Z,70.18
2018-03-27T06:27:36.050Z,70.37
2018-03-27T06:28:36.150Z,70.18
2018-03-27T06:29:36.280Z,69.33
2018-03-27T06:30:36.442Z,69.33
2018-03-27T06:31:36.570Z,69.80
2018-03-27T06:32:36.701Z,69.04
2018-03-27T06:33:36.839Z,69.23
2018-03-27T06:34:36.982Z,69.33
2018-03-27T06:35:37.110Z,70.37
2018-03-27T06:36:37.243Z,69.99
2018-03-27T06:37:37.373Z,70.09
2018-03-27T06:38:37.538Z,70.81
2018-03-27T06:39:37.666Z,71.47
2018-03-27T06:40:37.800Z,71.76
2018-03-27T06:41:37.934Z,71.28
2018-03-27T06:42:38.101Z,71.13
2018-03-27T06:43:38.216Z,71.32
2018-03-27T06:44:38.350Z,71.38
2018-03-27T06:45:38.504Z,71.47
2018-03-27T06:46:38.624Z,71.32
2018-03-27T06:47:38.759Z,71.22
2018-03-27T06:48:38.881Z,71.32
2018-03-27T06:49:39.018Z,71.32
2018-03-27T06:50:39.169Z,70.75
2018-03-27T06:51:39.296Z,70.47
2018-03-27T06:52:39.457Z,70.18
2018-03-27T06:53:39.582Z,70.75
2018-03-27T06:54:39.718Z,70.75
2018-03-27T06:55:39.847Z,69.90
2018-03-27T06:56:39.982Z,70.37
2018-03-27T06:57:40.111Z,69.13
2018-03-27T06:58:40.243Z,69.52
2018-03-27T06:59:40.372Z,69.52
2018-03-27T07:00:40.502Z,69.23
2018-03-27T07:01:40.651Z,69.08
2018-03-27T07:02:40.806Z,68.95
2018-03-27T07:03:40.903Z,68.57
2018-03-27T07:04:41.036Z,68.76
2018-03-27T07:05:41.195Z,68.60
2018-03-27T07:06:41.336Z,68.60
2018-03-27T07:07:41.436Z,68.60
2018-03-27T07:08:41.563Z,68.04
2018-03-27T07:09:41.696Z,67.85
2018-03-27T07:10:41.864Z,67.75
2018-03-27T07:11:41.991Z,67.94
2018-03-27T07:12:42.125Z,67.56
2018-03-27T07:13:42.253Z,67.43
2018-03-27T07:14:42.388Z,67.43
2018-03-27T07:15:42.560Z,67.52
2018-03-27T07:16:42.654Z,67.65
2018-03-27T07:17:42.792Z,67.85
2018-03-27T07:18:42.953Z,67.94
2018-03-27T07:19:45.064Z,68.51
2018-03-27T07:20:43.186Z,68.70
2018-03-27T07:21:43.320Z,68.51
2018-03-27T07:22:43.470Z,68.04
2018-03-27T07:23:43.597Z,67.65
2018-03-27T07:24:43.728Z,67.37
2018-03-27T07:25:43.861Z,67.85
2018-03-27T07:26:44.012Z,67.46
2018-03-27T07:27:44.138Z,67.75
2018-03-27T07:28:44.270Z,66.80
2018-03-27T07:29:44.424Z,66.80
2018-03-27T07:30:44.560Z,66.33
2018-03-27T07:31:44.718Z,66.14
2018-03-27T07:32:44.848Z,66.33
2018-03-27T07:33:44.986Z,66.52
2018-03-27T07:34:45.116Z,66.42
2018-03-27T07:35:45.247Z,65.79
2018-03-27T07:36:45.384Z,65.69
2018-03-27T07:37:45.521Z,66.08
2018-03-27T07:38:45.652Z,65.60
2018-03-27T07:39:45.782Z,65.60
2018-03-27T07:40:45.916Z,66.27
2018-03-27T07:41:46.057Z,65.50
2018-03-27T07:42:46.204Z,65.88
2018-03-27T07:43:46.335Z,66.17
2018-03-27T07:44:46.468Z,66.36
2018-03-27T07:45:46.602Z,65.88
2018-03-27T07:46:46.747Z,66.36
2018-03-27T07:47:46.880Z,65.88
2018-03-27T07:48:47.014Z,66.08
2018-03-27T07:49:47.148Z,66.46
2018-03-27T07:50:47.304Z,66.36
2018-03-27T07:51:47.426Z,67.50
2018-03-27T07:52:47.557Z,67.88
2018-03-27T07:53:47.690Z,67.97
2018-03-27T07:54:47.845Z,67.37
2018-03-27T07:55:48.044Z,68.23
2018-03-27T07:56:48.105Z,68.26
2018-03-27T07:57:48.198Z,69.11
2018-03-27T07:58:48.358Z,68.35
2018-03-27T07:59:48.487Z,68.92
2018-03-27T08:00:48.627Z,68.92
2018-03-27T08:01:48.757Z,68.07
2018-03-27T08:02:48.896Z,67.97
2018-03-27T08:03:49.029Z,67.97
2018-03-27T08:04:49.162Z,68.64
2018-03-27T08:05:49.294Z,68.44
2018-03-27T08:06:49.426Z,68.92
2018-03-27T08:07:49.571Z,67.79
2018-03-27T08:08:49.699Z,67.50
2018-03-27T08:09:49.841Z,68.26
2018-03-27T08:10:49.977Z,68.54
2018-03-27T08:11:50.111Z,68.83
2018-03-27T08:12:50.243Z,69.21
2018-03-27T08:13:50.390Z,68.77
2018-03-27T08:14:50.526Z,68.83
2018-03-27T08:15:50.666Z,69.02
2018-03-27T08:16:50.801Z,68.77
2018-03-27T08:17:50.970Z,68.86
2018-03-27T08:18:51.096Z,68.96
2018-03-27T08:19:51.268Z,68.29
2018-03-27T08:20:51.394Z,68.96
2018-03-27T08:21:51.533Z,67.63
2018-03-27T08:22:51.678Z,67.06
2018-03-27T08:23:51.832Z,66.77
2018-03-27T08:24:51.965Z,66.77
2018-03-27T08:25:52.105Z,66.52
2018-03-27T08:26:52.265Z,66.90
2018-03-27T08:27:52.395Z,66.33
2018-03-27T08:28:52.531Z,66.42
2018-03-27T08:29:52.668Z,65.95
2018-03-27T08:30:52.840Z,66.33
2018-03-27T08:31:52.937Z,65.67
2018-03-27T08:32:53.074Z,65.41
2018-03-27T08:33:53.213Z,64.24
2018-03-27T08:34:53.351Z,63.67
2018-03-27T08:35:53.487Z,63.67
2018-03-27T08:36:53.616Z,63.86
2018-03-27T08:37:53.751Z,63.10
2018-03-27T08:38:53.896Z,63.01
2018-03-27T08:39:54.033Z,62.81
2018-03-27T08:40:54.171Z,63.01
2018-03-27T08:41:54.313Z,62.91
2018-03-27T08:42:54.445Z,64.14
2018-03-27T08:43:54.625Z,64.34
2018-03-27T08:44:54.718Z,63.76
2018-03-27T08:45:54.848Z,62.05
2018-03-27T08:46:54.998Z,62.34
2018-03-27T08:47:55.162Z,62.34
2018-03-27T08:48:55.293Z,61.10
2018-03-27T08:49:55.431Z,61.20
2018-03-27T08:50:55.630Z,60.72
2018-03-27T08:51:55.684Z,61.20
2018-03-27T08:52:55.816Z,61.20
2018-03-27T08:53:55.975Z,59.96
2018-03-27T08:54:56.101Z,59.96
2018-03-27T08:55:56.231Z,59.68
2018-03-27T08:56:56.388Z,60.16
2018-03-27T08:57:56.518Z,59.87
2018-03-27T08:58:56.655Z,59.80
2018-03-27T08:59:56.852Z,59.80
2018-03-27T09:00:56.948Z,59.52
2018-03-27T09:01:57.088Z,59.61
2018-03-27T09:02:57.212Z,58.47
2018-03-27T09:03:57.342Z,57.04
2018-03-27T09:04:57.477Z,56.95
2018-03-27T09:05:57.610Z,57.62
2018-03-27T09:06:57.745Z,57.43
2018-03-27T09:07:57.889Z,57.43
2018-03-27T09:08:58.033Z,57.26
2018-03-27T09:09:58.169Z,56.70
2018-03-27T09:10:58.316Z,57.07
2018-03-27T09:11:58.438Z,56.98
2018-03-27T09:12:58.577Z,57.14
2018-03-27T09:13:58.704Z,57.62
2018-03-27T09:14:58.840Z,58.57
2018-03-27T09:15:59.002Z,59.14
2018-03-27T09:16:59.123Z,59.80
2018-03-27T09:17:59.258Z,59.90
2018-03-27T09:18:59.390Z,59.42
2018-03-27T09:19:59.539Z,58.66
2018-03-27T09:20:59.676Z,58.57
2018-03-27T09:21:59.813Z,59.42
2018-03-27T09:22:59.947Z,59.99
2018-03-27T09:24:00.110Z,59.23
2018-03-27T09:25:00.242Z,58.28
2018-03-27T09:26:00.378Z,57.81
2018-03-27T09:27:00.513Z,57.81
2018-03-27T09:28:00.658Z,59.27
2018-03-27T09:29:00.787Z,58.09
2018-03-27T09:30:00.924Z,58.22
2018-03-27T09:31:01.059Z,58.40
2018-03-27T09:32:01.204Z,57.84
2018-03-27T09:33:01.342Z,57.07
2018-03-27T09:34:01.466Z,58.22
2018-03-27T09:35:01.605Z,56.60
2018-03-27T09:36:01.740Z,56.05
2018-03-27T09:37:01.878Z,55.08
2018-03-27T09:38:02.047Z,54.44
2018-03-27T09:39:02.173Z,53.96
2018-03-27T09:40:02.271Z,53.87
2018-03-27T09:41:02.405Z,52.53
2018-03-27T09:42:02.534Z,51.30
2018-03-27T09:43:02.697Z,51.39
2018-03-27T09:44:02.829Z,51.87
2018-03-27T09:45:02.967Z,51.49
2018-03-27T09:46:03.106Z,51.32
2018-03-27T09:47:03.247Z,51.80
2018-03-27T09:48:03.376Z,51.30
2018-03-27T09:49:03.524Z,49.96
2018-03-27T09:50:03.649Z,49.68
2018-03-27T09:51:03.788Z,50.15
2018-03-27T09:52:03.950Z,50.15
2018-03-27T09:53:04.073Z,50.66
2018-03-27T09:54:04.213Z,49.99
2018-03-27T09:55:04.342Z,49.90
2018-03-27T09:56:04.492Z,50.37
2018-03-27T09:57:04.623Z,49.51
2018-03-27T09:58:04.766Z,48.18
2018-03-27T09:59:04.904Z,46.84
2018-03-27T10:00:05.052Z,47.61
2018-03-27T10:01:05.185Z,46.56
2018-03-27T10:02:05.319Z,46.37
2018-03-27T10:03:05.466Z,46.56
2018-03-27T10:04:05.610Z,45.99
2018-03-27T10:05:05.745Z,45.89
2018-03-27T10:06:05.885Z,45.89
2018-03-27T10:07:06.024Z,45.61
2018-03-27T10:08:06.165Z,45.51
2018-03-27T10:09:06.296Z,45.99
2018-03-27T10:10:06.436Z,46.09
2018-03-27T10:11:06.577Z,45.80
2018-03-27T10:12:06.724Z,45.14
2018-03-27T10:13:06.864Z,44.18
2018-03-27T10:14:06.999Z,44.46
2018-03-27T10:15:07.138Z,45.14
2018-03-27T10:16:07.276Z,44.96
2018-03-27T10:17:07.426Z,44.49
2018-03-27T10:18:07.556Z,43.91
2018-03-27T10:19:07.693Z,44.11
2018-03-27T10:20:07.822Z,44.59
2018-03-27T10:21:07.961Z,45.35
2018-03-27T10:22:08.138Z,45.35
2018-03-27T10:23:08.258Z,44.96
2018-03-27T10:24:08.411Z,44.39
2018-03-27T10:25:08.533Z,43.91
2018-03-27T10:26:08.735Z,41.75
2018-03-27T10:27:08.866Z,40.41
2018-03-27T10:28:09.003Z,39.94
2018-03-27T10:29:09.142Z,39.46
2018-03-27T10:30:09.299Z,39.94
2018-03-27T10:31:09.435Z,40.60
2018-03-27T10:32:09.576Z,42.34
2018-03-27T10:33:09.710Z,43.01
2018-03-27T10:34:09.858Z,41.96
2018-03-27T10:35:09.991Z,41.00
2018-03-27T10:36:10.152Z,39.67
2018-03-27T10:37:10.315Z,38.71
2018-03-27T10:38:10.453Z,38.05
2018-03-27T10:39:11.273Z,38.81
2018-03-27T10:40:10.748Z,38.15
2018-03-27T10:41:10.864Z,37.86
2018-03-27T10:42:11.006Z,37.76
2018-03-27T10:43:11.144Z,39.88
2018-03-27T10:44:11.282Z,40.36
2018-03-27T10:45:11.422Z,40.83
2018-03-27T10:46:11.559Z,40.36
2018-03-27T10:47:11.703Z,40.64
2018-03-27T10:48:12.775Z,40.26
2018-03-27T10:49:11.953Z,39.42
2018-03-27T10:50:12.092Z,38.66
2018-03-27T10:51:12.233Z,37.80
2018-03-27T10:52:12.374Z,38.01
2018-03-27T10:53:12.550Z,37.34
2018-03-27T10:54:12.648Z,36.69
2018-03-27T10:55:12.791Z,35.45
2018-03-27T10:56:12.941Z,33.06
2018-03-27T10:57:13.079Z,32.49
2018-03-27T10:58:13.221Z,31.64
2018-03-27T10:59:13.364Z,32.62
2018-03-27T11:00:13.517Z,31.87
2018-03-27T11:01:13.659Z,30.06
2018-03-27T11:02:13.799Z,28.83
2018-03-27T11:03:13.944Z,27.39
2018-03-27T11:04:14.092Z,25.70
2018-03-27T11:05:14.233Z,25.32
2018-03-27T11:06:14.374Z,25.53
2018-03-27T11:07:14.519Z,25.56
2018-03-27T11:08:14.665Z,23.83
2018-03-27T11:09:14.811Z,22.59
2018-03-27T11:10:14.951Z,21.92
2018-03-27T11:11:15.100Z,22.22
2018-03-27T11:12:15.240Z,21.18
2018-03-27T11:13:15.372Z,20.98
2018-03-27T11:14:15.524Z,19.54
2018-03-27T11:15:15.669Z,18.28
2018-03-27T11:16:15.815Z,17.13
2018-03-27T11:17:15.962Z,18.10
2018-03-27T11:18:16.114Z,18.30
2018-03-27T11:19:16.258Z,18.49
2018-03-27T11:20:16.408Z,18.50
2018-03-27T11:21:16.583Z,18.32
2018-03-27T11:22:16.722Z,17.35
2018-03-27T11:23:16.883Z,17.15
2018-03-27T11:24:17.035Z,17.33
2018-03-27T11:25:17.167Z,17.63
2018-03-27T11:26:17.311Z,17.15
2018-03-27T11:27:17.460Z,16.65
2018-03-27T11:28:17.610Z,17.03
2018-03-27T11:29:17.824Z,16.91
2018-03-27T11:30:17.919Z,18.51
2018-03-27T11:31:18.065Z,19.67
2018-03-27T11:32:18.217Z,19.68
2018-03-27T11:33:18.364Z,19.77
2018-03-27T11:34:18.510Z,19.85
2018-03-27T11:35:18.654Z,24.38
2018-03-27T11:36:18.805Z,23.88
2018-03-27T11:37:18.973Z,21.61
2018-03-27T11:38:19.103Z,20.38
2018-03-27T11:39:19.243Z,21.12
2018-03-27T11:40:19.389Z,21.00
2018-03-27T11:41:19.565Z,23.18
2018-03-27T11:42:19.700Z,24.22
2018-03-27T11:43:19.862Z,24.60
2018-03-27T11:44:20.010Z,24.32
2018-03-27T11:45:20.191Z,24.60
2018-03-27T11:46:20.326Z,24.34
2018-03-27T11:47:20.471Z,21.91
2018-03-27T11:48:20.662Z,21.20
2018-03-27T11:49:20.786Z,21.00
2018-03-27T11:50:20.938Z,21.88
2018-03-27T11:51:21.089Z,22.45
2018-03-27T11:52:21.236Z,22.35
2018-03-27T11:53:21.378Z,21.01
2018-03-27T11:54:21.524Z,20.43
2018-03-27T11:55:21.671Z,20.62
2018-03-27T11:56:21.816Z,21.08
2018-03-27T11:57:21.962Z,22.80
2018-03-27T11:58:22.116Z,22.32
2018-03-27T11:59:22.262Z,23.37
2018-03-27T12:00:22.412Z,23.74
2018-03-27T12:01:22.564Z,24.58
2018-03-27T12:02:22.712Z,25.16
2018-03-27T12:03:22.864Z,25.63
2018-03-27T12:04:23.017Z,26.39
2018-03-27T12:05:23.165Z,26.67
2018-03-27T12:06:23.305Z,27.23
2018-03-27T12:07:23.488Z,27.79
2018-03-27T12:08:23.602Z,29.11
2018-03-27T12:09:23.742Z,31.50
2018-03-27T12:10:23.884Z,32.26
2018-03-27T12:11:24.035Z,31.39
2018-03-27T12:12:24.199Z,32.04
2018-03-27T12:13:24.343Z,32.71
2018-03-27T12:14:24.485Z,33.18
2018-03-27T12:15:24.628Z,33.49
2018-03-27T12:16:24.800Z,33.39
2018-03-27T12:17:24.938Z,33.39
2018-03-27T12:18:25.079Z,33.11
2018-03-27T12:19:25.243Z,32.63
2018-03-27T12:20:25.416Z,32.44
2018-03-27T12:21:25.549Z,32.63
2018-03-27T12:22:25.698Z,32.73
2018-03-27T12:23:25.836Z,32.34
2018-03-27T12:24:26.802Z,32.44
2018-03-27T12:25:26.214Z,32.92
2018-03-27T12:26:26.354Z,31.98
2018-03-27T12:27:26.559Z,32.34
2018-03-27T12:28:26.587Z,32.61
2018-03-27T12:29:26.734Z,33.85
2018-03-27T12:30:26.889Z,34.23
2018-03-27T12:31:27.028Z,35.10
2018-03-27T12:32:27.164Z,35.19
2018-03-27T12:33:27.308Z,34.79
2018-03-27T12:34:27.454Z,34.79
2018-03-27T12:35:27.590Z,35.08
2018-03-27T12:36:27.727Z,34.50
2018-03-27T12:37:27.873Z,34.23
2018-03-27T12:38:28.008Z,34.14
2018-03-27T12:39:28.142Z,34.25
2018-03-27T12:40:28.284Z,33.89
2018-03-27T12:41:28.430Z,32.39
2018-03-27T12:42:28.608Z,32.20
2018-03-27T12:43:28.705Z,31.45
2018-03-27T12:44:28.869Z,30.10
2018-03-27T12:45:29.003Z,30.18
2018-03-27T12:46:29.164Z,31.51
2018-03-27T12:47:29.302Z,32.26
2018-03-27T12:48:29.488Z,33.12
2018-03-27T12:49:29.509Z,34.27
2018-03-27T12:50:29.646Z,34.27
2018-03-27T12:51:29.786Z,32.87
2018-03-27T12:52:29.928Z,31.16
2018-03-27T12:53:30.329Z,31.71
2018-03-27T12:54:30.322Z,31.32
2018-03-27T12:55:30.537Z,31.42